Fort Saskatchewan, Canada
Current Conditions -  °F | °C
As of 11:00 AM on Thursday 30 Oct 2014 (Local Time) from CYED Reporting Station
Overcast Overcast  
Wind Chill: 22°   Ceiling: 400
Heat Index: 32°   Visibility: 4mi
Dew Point: 30°   Wind: 14mph
Humidity: 93%   Direction: 130°SE
Pressure: 30.2"   Gusts: NA
Location:  53.71°N, 113.21°W
Report Text: CYED 301700Z AUTO 13012KT 4SM OVC004 00/M01 A3020 RMK SLP257
Loading
Personal Weather Stations






























Interactive Weather Map
Tropical Storm Tracking
New forecast layout! Learn more

10-Day Weather Forecast

Advertisements
Track Severe Weather on mobile